Time;durP1;ratioP1;P1;durP2;ratioP2;P2;SDS_P1;SDS_P2;PMS_P1;PMS_P2;Temp;Humidity;BMP_temperature;BMP_pressure;BME280_temperature;BME280_humidity;BME280_pressure;Samples;Min_cycle;Max_cycle;Signal;HPM_P1;HPM_P2
2021/12/01 00:00:43;;;;;;;9.00;7.28;;;;;;;8.60;99.08;100149.28;4934656;28;20043;-81
2021/12/01 00:03:57;;;;;;;;;;;;;;;;;;;;;
2021/12/01 00:09:49;;;;;;;7.20;5.90;;;;;;;8.44;98.89;100080.00;5015012;28;20060;-81
2021/12/01 00:12:48;;;;;;;;;;;;;;;;;;;;;
2021/12/01 00:16:29;;;;;;;6.90;5.30;;;;;;;8.63;98.72;100089.59;4997471;28;20026;-81
2021/12/01 00:33:13;;;;;;;;;;;;;;;;;;;;;
2021/12/01 00:36:18;;;;;;;;;;;;;;;;;;;;;
2021/12/01 00:39:05;;;;;;;5.60;4.50;;;;;;;8.46;99.04;99991.03;5011960;28;20033;-82
2021/12/01 00:41:33;;;;;;;6.90;4.70;;;;;;;8.41;98.34;99967.38;5003781;28;20128;-82
2021/12/01 00:44:35;;;;;;;;;;;;;;;;;;;;;
2021/12/01 00:47:41;;;;;;;5.60;4.60;;;;;;;8.46;98.30;99972.97;4973416;28;20381;-81
2021/12/01 00:51:01;;;;;;;;;;;;;;;;;;;;;
2021/12/01 01:00:18;;;;;;;;;;;;;;;;;;;;;
2021/12/01 01:06:08;;;;;;;5.22;3.95;;;;;;;8.36;98.42;99933.34;4960707;28;20043;-82
2021/12/01 01:09:30;;;;;;;;;;;;;;;;;;;;;
2021/12/01 01:19:33;;;;;;;4.68;3.72;;;;;;;8.61;98.34;99941.56;5067980;22;20047;-81
2021/12/01 01:21:58;;;;;;;5.68;3.90;;;;;;;8.44;97.55;99925.75;5007197;28;20438;-82
2021/12/01 01:35:08;;;;;;;;;;;;;;;8.61;97.07;99910.56;4985144;28;20121;-82
2021/12/01 01:38:04;;;;;;;5.20;3.92;;;;;;;8.33;97.03;99881.94;4971406;28;19922;-82
2021/12/01 01:41:29;;;;;;;5.78;4.32;;;;;;;8.47;96.97;99896.25;4974755;28;20035;-83
2021/12/01 01:46:32;;;;;;;6.32;5.10;;;;;;;8.45;96.98;99901.56;5507755;23;20050;-64
2021/12/01 01:52:19;;;;;;;7.05;5.60;;;;;;;8.41;96.63;99884.69;5181170;23;20100;-66
2021/12/01 01:55:16;;;;;;;7.20;5.82;;;;;;;8.40;96.87;99871.91;5006811;28;20037;-66
2021/12/01 01:57:44;;;;;;;6.82;6.00;;;;;;;8.35;96.68;99880.00;5170113;23;20092;-63
2021/12/01 02:00:10;;;;;;;6.77;6.07;;;;;;;8.35;96.42;99874.03;4993166;28;20027;-63
2021/12/01 02:02:36;;;;;;;7.53;6.03;;;;;;;8.33;96.70;99869.00;4992332;28;20030;-65
2021/12/01 02:05:01;;;;;;;7.22;6.50;;;;;;;8.31;96.86;99847.63;4992832;28;20056;-63
2021/12/01 02:07:26;;;;;;;7.65;6.30;;;;;;;8.30;96.54;99855.53;4991363;28;20032;-63
2021/12/01 02:09:52;;;;;;;6.68;5.93;;;;;;;8.26;96.27;99855.00;4992611;28;20057;-64
2021/12/01 02:12:17;;;;;;;9.00;6.10;;;;;;;8.24;96.72;99833.63;4992652;28;20057;-63
2021/12/01 02:14:43;;;;;;;7.68;5.57;;;;;;;8.23;96.69;99824.25;4992126;28;20041;-63
2021/12/01 02:17:08;;;;;;;7.45;5.85;;;;;;;8.20;96.38;99833.09;4992170;28;20367;-63
2021/12/01 02:19:38;;;;;;;7.40;6.10;;;;;;;8.20;96.61;99824.50;4991140;28;20072;-63
2021/12/01 02:22:04;;;;;;;7.05;5.38;;;;;;;8.17;96.75;99820.44;4975156;28;20049;-64
2021/12/01 02:24:29;;;;;;;6.30;5.43;;;;;;;8.16;96.53;99802.50;4974446;28;20466;-63
2021/12/01 02:26:55;;;;;;;6.38;5.40;;;;;;;8.13;96.06;99792.44;4974844;28;20446;-63
2021/12/01 02:29:24;;;;;;;5.70;4.53;;;;;;;8.16;95.96;99781.84;4992437;28;20018;-63
2021/12/01 02:31:50;;;;;;;6.15;4.70;;;;;;;8.12;96.24;99789.03;4991873;28;20037;-63
2021/12/01 02:34:19;;;;;;;6.63;5.00;;;;;;;8.11;96.17;99771.09;4991846;28;20041;-63
2021/12/01 02:36:48;;;;;;;5.13;4.25;;;;;;;8.08;95.54;99768.78;4992177;28;20030;-73
2021/12/01 02:39:16;;;;;;;4.55;3.90;;;;;;;8.05;95.52;99774.22;4990973;28;20402;-73
2021/12/01 02:41:42;;;;;;;6.38;4.25;;;;;;;8.03;95.34;99750.28;4991902;28;20165;-63
2021/12/01 02:44:08;;;;;;;6.80;4.30;;;;;;;8.05;95.45;99748.41;4989802;28;20390;-63
2021/12/01 02:46:35;;;;;;;6.30;4.97;;;;;;;8.01;95.42;99752.19;4990536;28;20030;-62
2021/12/01 02:49:01;;;;;;;5.18;3.70;;;;;;;8.01;95.76;99721.22;4992334;28;20133;-63
2021/12/01 02:51:28;;;;;;;5.00;3.95;;;;;;;7.98;95.08;99743.78;4974479;28;20474;-63
2021/12/01 02:53:55;;;;;;;4.53;3.45;;;;;;;7.99;94.81;99724.75;4991963;28;20030;-63
2021/12/01 02:56:22;;;;;;;4.18;3.72;;;;;;;7.94;95.35;99732.09;4992140;28;20058;-63
2021/12/01 02:58:48;;;;;;;5.20;3.55;;;;;;;7.94;95.25;99721.75;4991407;28;20034;-63
2021/12/01 03:01:17;;;;;;;5.90;3.53;;;;;;;7.92;95.30;99712.53;4991381;28;20034;-63
2021/12/01 03:03:44;;;;;;;4.78;3.40;;;;;;;7.89;95.50;99710.19;4991857;28;20030;-64
2021/12/01 03:06:10;;;;;;;5.20;3.53;;;;;;;7.87;95.13;99718.09;4992074;28;20045;-63
2021/12/01 03:08:37;;;;;;;4.47;3.60;;;;;;;7.84;95.60;99705.44;4991176;28;20474;-64
2021/12/01 03:11:03;;;;;;;4.90;3.47;;;;;;;7.83;95.28;99701.22;4991614;28;20462;-63
2021/12/01 03:13:29;;;;;;;4.20;3.58;;;;;;;7.81;95.33;99687.66;4991016;28;20057;-63
2021/12/01 03:15:55;;;;;;;4.47;3.50;;;;;;;7.82;95.00;99683.31;5162711;23;20360;-67
2021/12/01 03:18:20;;;;;;;5.35;3.80;;;;;;;7.80;95.29;99683.44;5010719;28;20132;-66
2021/12/01 03:23:22;;;;;;;5.53;4.03;;;;;;;7.74;94.84;99665.88;4995252;23;20126;-67
2021/12/01 03:29:14;;;;;;;7.32;3.90;;;;;;;7.76;94.73;99661.44;4992289;28;20505;-67
2021/12/01 03:31:39;;;;;;;6.55;4.20;;;;;;;7.74;94.81;99642.66;5166809;23;20051;-73
2021/12/01 03:34:36;;;;;;;4.72;3.70;;;;;;;7.75;94.38;99638.34;4991638;28;20377;-67
2021/12/01 03:37:02;;;;;;;5.90;4.18;;;;;;;7.72;94.69;99642.00;4991497;28;20026;-75
2021/12/01 03:39:27;;;;;;;4.72;4.00;;;;;;;7.69;94.72;99629.38;4997581;28;20033;-67
2021/12/01 03:41:52;;;;;;;6.47;4.18;;;;;;;7.68;94.00;99627.72;4983646;28;20034;-67
2021/12/01 03:44:18;;;;;;;6.00;4.10;;;;;;;7.69;94.25;99619.06;4993513;28;20064;-67
2021/12/01 03:46:43;;;;;;;5.15;4.03;;;;;;;7.67;94.33;99605.44;4991312;28;20026;-67
2021/12/01 03:49:08;;;;;;;5.78;4.00;;;;;;;7.67;93.71;99626.09;4997220;28;20442;-66
2021/12/01 03:51:34;;;;;;;5.32;4.05;;;;;;;7.67;93.46;99613.19;4998515;28;20041;-67
2021/12/01 03:54:00;;;;;;;4.80;3.85;;;;;;;7.68;93.35;99601.91;4974025;28;20034;-66
2021/12/01 03:56:25;;;;;;;6.93;4.25;;;;;;;7.66;93.50;99593.50;4991318;28;20041;-67
2021/12/01 03:58:51;;;;;;;6.15;4.13;;;;;;;7.64;93.37;99564.47;4995484;28;20034;-67
2021/12/01 04:01:16;;;;;;;4.55;3.83;;;;;;;7.63;93.09;99562.84;5001499;28;20390;-67
2021/12/01 04:03:42;;;;;;;5.72;4.28;;;;;;;7.63;93.49;99563.66;4973539;28;20069;-67
2021/12/01 04:06:07;;;;;;;6.30;4.20;;;;;;;7.64;93.38;99554.13;4991984;28;20042;-68
2021/12/01 04:08:34;;;;;;;5.38;3.75;;;;;;;7.54;93.09;99540.41;4973515;28;20026;-66
2021/12/01 04:10:59;;;;;;;4.65;3.80;;;;;;;7.62;92.38;99536.19;4990907;28;20026;-67
2021/12/01 04:13:24;;;;;;;6.47;3.70;;;;;;;7.62;92.28;99535.38;4998876;28;20030;-67
2021/12/01 04:15:50;;;;;;;5.70;4.10;;;;;;;7.61;92.83;99524.25;5001229;28;20038;-66
2021/12/01 04:18:15;;;;;;;5.90;4.20;;;;;;;7.58;92.41;99518.56;4980704;28;20290;-66
2021/12/01 04:20:41;;;;;;;5.60;4.00;;;;;;;7.60;92.73;99527.78;5010942;28;20022;-67
2021/12/01 04:23:07;;;;;;;5.50;3.90;;;;;;;7.60;92.23;99511.50;4998816;28;20033;-67
2021/12/01 04:25:32;;;;;;;5.57;3.85;;;;;;;7.56;92.52;99510.13;4987746;28;20046;-68
2021/12/01 04:27:58;;;;;;;5.45;4.22;;;;;;;7.58;91.88;99492.75;5007966;28;20060;-67
2021/12/01 04:30:25;;;;;;;6.40;4.72;;;;;;;7.55;91.90;99487.88;4998166;28;20533;-67
2021/12/01 04:32:51;;;;;;;6.25;4.50;;;;;;;7.57;92.34;99485.94;5008001;28;20065;-66
2021/12/01 04:35:19;;;;;;;6.47;5.50;;;;;;;7.57;91.60;99480.78;4999668;28;20076;-66
2021/12/01 04:37:45;;;;;;;6.80;5.55;;;;;;;7.55;91.64;99467.22;4979737;28;20121;-67
2021/12/01 04:43:33;;;;;;;6.68;5.18;;;;;;;7.55;91.78;99452.56;5183832;23;20100;-63
2021/12/01 04:46:41;;;;;;;6.55;5.20;;;;;;;7.56;92.10;99443.03;5013509;28;20018;-63
2021/12/01 04:49:08;;;;;;;6.40;4.90;;;;;;;7.51;91.92;99422.00;5158027;23;20046;-66
2021/12/01 04:52:24;;;;;;;6.13;4.70;;;;;;;7.50;92.33;99439.25;4960985;28;20371;-64
2021/12/01 04:54:49;;;;;;;6.05;4.80;;;;;;;7.45;92.32;99426.81;5200444;23;20084;-63
2021/12/01 04:57:16;;;;;;;5.78;4.30;;;;;;;7.44;92.36;99430.31;5034194;28;20065;-63
2021/12/01 04:59:41;;;;;;;6.45;4.78;;;;;;;7.42;91.91;99416.75;5168713;23;20050;-64
2021/12/01 05:05:36;;;;;;;5.50;4.38;;;;;;;7.35;92.73;99420.84;4994393;28;20037;-63
2021/12/01 05:08:14;;;;;;;6.70;4.40;;;;;;;7.14;93.11;99378.94;5118370;23;20413;-82
2021/12/01 05:11:02;;;;;;;5.57;4.37;;;;;;;7.17;92.91;99384.63;5019515;28;20028;-81
2021/12/01 05:13:41;;;;;;;;;;;;;;;7.38;93.20;99393.94;5013793;28;20124;-81
2021/12/01 05:19:38;;;;;;;6.60;4.00;;;;;;;7.03;93.13;99356.69;5021786;28;20114;-82
2021/12/01 05:22:09;;;;;;;6.20;4.22;;;;;;;7.00;93.50;99348.44;5029646;28;20056;-82
2021/12/01 05:25:06;;;;;;;6.45;4.07;;;;;;;7.10;93.34;99369.84;5011213;28;20394;-82
2021/12/01 05:27:58;;;;;;;7.70;4.05;;;;;;;7.22;93.86;99368.72;5008139;28;20026;-82
2021/12/01 05:30:32;;;;;;;5.30;3.33;;;;;;;6.97;93.71;99340.97;5004263;28;20123;-82
2021/12/01 05:33:15;;;;;;;4.75;3.17;;;;;;;6.99;93.88;99341.63;5012128;28;20052;-82
2021/12/01 05:35:55;;;;;;;5.57;3.45;;;;;;;7.14;93.68;99366.03;5023175;28;20026;-82
2021/12/01 05:38:44;;;;;;;;;;;;;;;;;;;;;
2021/12/01 05:41:19;;;;;;;4.90;2.95;;;;;;;7.09;94.35;99347.59;5017482;28;20037;-82
2021/12/01 05:44:09;;;;;;;4.20;2.55;;;;;;;7.09;94.00;99332.94;5010652;28;20022;-82
2021/12/01 05:47:12;;;;;;;3.75;2.63;;;;;;;6.88;94.40;99303.94;5004863;28;20083;-82
2021/12/01 05:50:30;;;;;;;3.30;2.55;;;;;;;7.01;93.81;99313.97;5003349;23;20043;-82
2021/12/01 05:53:28;;;;;;;3.83;2.20;;;;;;;7.07;94.36;99318.56;4979416;28;20046;-82
2021/12/01 05:56:08;;;;;;;3.90;2.55;;;;;;;6.84;93.97;99285.38;4964049;28;20093;-82
2021/12/01 05:58:53;;;;;;;2.90;2.08;;;;;;;6.86;94.48;99275.75;4988901;28;20041;-82
2021/12/01 06:01:43;;;;;;;;;;;;;;;;;;;;;
2021/12/01 06:04:30;;;;;;;2.85;1.83;;;;;;;6.89;94.09;99262.59;4986687;28;20038;-82
2021/12/01 06:06:59;;;;;;;3.10;1.90;;;;;;;6.82;94.81;99256.34;4972130;28;20034;-82
2021/12/01 06:13:04;;;;;;;2.50;1.90;;;;;;;6.87;94.35;99249.00;4942045;29;19945;-82
2021/12/01 06:15:48;;;;;;;2.83;1.98;;;;;;;7.00;95.04;99268.53;4929049;29;20031;-82
2021/12/01 06:18:23;;;;;;;3.25;2.10;;;;;;;6.92;94.97;99239.09;4963318;28;20050;-81
2021/12/01 06:21:02;;;;;;;1.92;1.70;;;;;;;6.82;94.60;99222.84;4972743;28;20026;-81
2021/12/01 06:23:33;;;;;;;2.63;1.80;;;;;;;6.99;95.29;99246.28;4989740;28;20448;-82
2021/12/01 06:29:07;;;;;;;2.58;1.85;;;;;;;6.77;95.45;99204.44;4977409;28;20465;-82
2021/12/01 06:32:05;;;;;;;2.00;1.73;;;;;;;7.00;95.16;99240.19;4987578;28;20538;-81
2021/12/01 06:34:36;;;;;;;2.65;1.90;;;;;;;6.80;95.56;99199.00;4984094;28;20053;-81
2021/12/01 06:37:18;;;;;;;4.18;1.80;;;;;;;6.84;95.66;99205.50;4990196;28;20042;-81
2021/12/01 06:42:38;;;;;;;2.45;1.80;;;;;;;6.80;95.37;99193.84;4958291;28;20030;-81
2021/12/01 06:45:31;;;;;;;2.40;1.88;;;;;;;7.04;95.07;99226.03;4971718;28;20029;-81
2021/12/01 06:48:21;;;;;;;3.00;2.05;;;;;;;6.94;95.34;99195.16;4985866;28;20026;-81
2021/12/01 06:50:49;;;;;;;3.35;1.90;;;;;;;6.82;95.66;99184.19;4987825;28;20639;-79
2021/12/01 06:53:17;;;;;;;3.03;2.20;;;;;;;6.84;95.24;99187.47;4971225;28;20454;-81
2021/12/01 06:55:46;;;;;;;2.53;2.10;;;;;;;6.88;95.63;99175.94;4987131;28;20105;-81
2021/12/01 06:58:15;;;;;;;2.58;2.20;;;;;;;6.97;95.79;99188.91;4972763;28;20038;-80
2021/12/01 07:00:41;;;;;;;3.17;2.47;;;;;;;6.99;95.88;99174.09;4971223;28;20033;-78
2021/12/01 07:03:06;;;;;;;5.13;2.40;;;;;;;6.98;96.08;99180.22;4985007;28;20148;-79
2021/12/01 07:05:35;;;;;;;3.47;2.45;;;;;;;7.11;95.95;99201.31;4973056;28;20496;-80
2021/12/01 07:08:03;;;;;;;3.20;2.27;;;;;;;6.88;95.94;99160.47;4989293;28;20026;-80
2021/12/01 07:10:51;;;;;;;3.42;2.60;;;;;;;6.97;95.83;99168.28;4973387;28;20058;-79
2021/12/01 07:15:47;;;;;;;3.13;2.83;;;;;;;7.15;95.89;99182.03;5008797;28;20049;-64
2021/12/01 07:18:12;;;;;;;3.97;3.10;;;;;;;7.16;96.57;99181.88;5011193;28;20033;-64
2021/12/01 07:20:38;;;;;;;4.22;3.00;;;;;;;7.18;96.45;99186.91;5010197;28;20117;-64
2021/12/01 07:23:03;;;;;;;4.05;3.20;;;;;;;7.20;96.46;99190.16;5016037;28;20112;-69
2021/12/01 07:25:30;;;;;;;4.13;3.28;;;;;;;7.17;96.37;99196.41;5014747;28;20076;-64
2021/12/01 07:27:55;;;;;;;8.10;5.40;;;;;;;7.21;96.28;99186.59;5005161;28;20581;-65
2021/12/01 07:30:20;;;;;;;3.88;3.22;;;;;;;7.23;96.03;99189.88;5006020;28;20072;-66
2021/12/01 07:32:46;;;;;;;4.40;3.53;;;;;;;7.24;96.22;99181.19;5003854;28;20060;-65
2021/12/01 07:35:11;;;;;;;4.60;3.70;;;;;;;7.23;96.31;99182.13;5002322;28;20041;-65
2021/12/01 07:37:37;;;;;;;5.65;3.88;;;;;;;7.23;96.31;99164.09;5010123;28;20025;-64
2021/12/01 07:40:03;;;;;;;4.80;3.95;;;;;;;7.27;96.71;99172.34;5010617;28;20084;-64
2021/12/01 07:42:28;;;;;;;5.03;4.05;;;;;;;7.29;96.02;99153.19;5021261;28;20035;-66
2021/12/01 07:44:54;;;;;;;5.22;4.45;;;;;;;7.30;96.37;99152.22;5010440;28;20289;-64
2021/12/01 07:47:19;;;;;;;6.25;4.82;;;;;;;7.31;96.32;99153.84;5015430;28;20018;-67
2021/12/01 07:49:44;;;;;;;6.47;4.70;;;;;;;7.32;96.01;99142.56;5010336;28;20037;-64
2021/12/01 07:52:10;;;;;;;5.80;4.82;;;;;;;7.36;96.56;99148.25;5010720;28;20101;-64
2021/12/01 07:54:36;;;;;;;6.22;4.80;;;;;;;7.38;95.93;99152.31;5022328;28;20026;-65
2021/12/01 07:57:02;;;;;;;6.13;5.28;;;;;;;7.38;95.71;99142.00;5030512;28;20033;-66
2021/12/01 07:59:29;;;;;;;6.85;5.45;;;;;;;7.38;96.12;99152.31;5011927;28;20042;-65
2021/12/01 08:01:54;;;;;;;6.10;5.50;;;;;;;7.41;96.48;99151.22;5008989;28;20026;-65
2021/12/01 08:04:20;;;;;;;6.85;6.05;;;;;;;7.42;95.44;99137.34;5022327;28;20040;-65
2021/12/01 08:06:45;;;;;;;7.47;6.05;;;;;;;7.43;95.69;99138.97;5015567;28;20025;-64
2021/12/01 08:09:11;;;;;;;7.68;6.38;;;;;;;7.44;95.81;99141.41;4994995;28;20057;-65
2021/12/01 08:11:38;;;;;;;7.43;6.28;;;;;;;7.45;95.89;99143.06;5007719;28;20030;-65
2021/12/01 08:14:06;;;;;;;7.70;6.55;;;;;;;7.43;95.82;99142.38;5005077;28;20069;-64
2021/12/01 08:16:32;;;;;;;7.57;6.78;;;;;;;7.45;96.16;99140.47;5012054;28;20034;-64
2021/12/01 08:18:57;;;;;;;7.65;6.85;;;;;;;7.50;95.92;99141.78;5008702;28;20481;-64
2021/12/01 08:21:24;;;;;;;7.50;6.80;;;;;;;7.47;96.09;99145.47;5017810;28;20045;-65
2021/12/01 08:23:50;;;;;;;8.95;8.05;;;;;;;7.50;95.81;99128.88;5017265;28;20036;-65
2021/12/01 08:26:15;;;;;;;8.88;7.97;;;;;;;7.50;96.43;99128.88;5014528;28;20033;-65
2021/12/01 08:28:45;;;;;;;9.15;8.25;;;;;;;7.51;95.85;99122.75;5004709;28;20404;-65
2021/12/01 08:31:13;;;;;;;9.63;8.18;;;;;;;7.52;95.71;99121.81;5000956;28;20503;-65
2021/12/01 08:33:39;;;;;;;8.93;8.07;;;;;;;7.53;96.42;99128.59;5020914;28;20123;-65
2021/12/01 08:36:04;;;;;;;9.40;8.43;;;;;;;7.55;95.55;99116.34;4996599;28;20466;-64
2021/12/01 08:38:30;;;;;;;9.23;8.23;;;;;;;7.56;96.26;99110.22;5013798;28;20116;-65
2021/12/01 08:40:55;;;;;;;9.25;8.35;;;;;;;7.56;96.12;99102.50;5013975;28;20068;-65
2021/12/01 08:43:20;;;;;;;8.82;7.93;;;;;;;7.58;96.13;99100.59;5014060;28;20492;-65
2021/12/01 08:45:46;;;;;;;9.10;7.97;;;;;;;7.58;95.93;99105.75;5016258;28;20066;-65
2021/12/01 08:48:11;;;;;;;8.48;7.57;;;;;;;7.58;95.54;99095.44;5015028;28;20084;-65
2021/12/01 08:50:37;;;;;;;8.38;7.20;;;;;;;7.61;95.60;99089.97;5013420;28;20029;-64
2021/12/01 08:53:02;;;;;;;7.60;6.70;;;;;;;7.64;95.50;99085.31;5013819;28;20052;-64
2021/12/01 08:55:28;;;;;;;7.90;6.30;;;;;;;7.65;95.74;99106.78;5009704;28;20400;-64
2021/12/01 08:57:53;;;;;;;7.30;6.28;;;;;;;7.66;95.26;99093.72;5014853;28;20033;-65
2021/12/01 09:00:20;;;;;;;6.78;5.72;;;;;;;7.70;94.66;99110.53;5004768;28;20108;-64
2021/12/01 09:02:46;;;;;;;6.60;5.72;;;;;;;7.72;94.85;99102.63;5008061;28;20529;-64
2021/12/01 09:05:12;;;;;;;7.15;6.10;;;;;;;7.73;95.14;99110.22;5004152;28;20109;-64
2021/12/01 09:07:38;;;;;;;7.10;5.88;;;;;;;7.74;95.11;99116.19;4993787;28;20025;-65
2021/12/01 09:10:05;;;;;;;8.05;6.30;;;;;;;7.76;94.72;99119.44;5012556;28;20022;-65
2021/12/01 09:12:30;;;;;;;8.20;6.70;;;;;;;7.77;94.37;99105.59;5006004;28;20026;-64
2021/12/01 09:14:57;;;;;;;7.80;7.00;;;;;;;7.76;94.58;99114.28;5007259;28;20053;-64
2021/12/01 09:17:23;;;;;;;7.65;6.85;;;;;;;7.78;94.03;99120.09;5008392;28;20025;-64
2021/12/01 09:19:49;;;;;;;7.30;6.50;;;;;;;7.78;94.23;99112.34;5012035;28;20552;-64
2021/12/01 09:22:16;;;;;;;7.82;6.28;;;;;;;7.80;93.71;99120.78;5010209;28;20058;-64
2021/12/01 09:24:42;;;;;;;7.53;6.13;;;;;;;7.83;93.65;99137.72;5012325;28;20057;-64
2021/12/01 09:27:07;;;;;;;7.13;6.07;;;;;;;7.83;94.15;99135.94;5013104;28;20469;-64
2021/12/01 09:29:33;;;;;;;6.55;5.85;;;;;;;7.81;94.49;99132.72;5011611;28;20044;-64
2021/12/01 09:31:59;;;;;;;6.75;6.05;;;;;;;7.82;94.37;99134.34;5025177;28;20238;-64
2021/12/01 09:34:25;;;;;;;7.63;5.40;;;;;;;7.81;94.70;99143.03;5013268;28;20036;-65
2021/12/01 09:36:51;;;;;;;8.77;5.50;;;;;;;7.79;94.34;99129.47;5012043;28;20389;-65
2021/12/01 09:39:17;;;;;;;6.57;4.18;;;;;;;7.71;93.70;99152.63;5012177;28;20096;-65
2021/12/01 09:41:43;;;;;;;7.25;3.25;;;;;;;7.69;93.27;99149.41;5012424;28;20029;-65
2021/12/01 09:44:08;;;;;;;8.15;2.40;;;;;;;7.59;92.35;99158.97;5012912;28;20157;-64
2021/12/01 09:46:34;;;;;;;7.00;2.13;;;;;;;7.53;91.98;99159.56;5017411;28;20109;-64
2021/12/01 09:48:59;;;;;;;8.90;2.42;;;;;;;7.44;91.94;99162.03;5007114;28;20053;-66
2021/12/01 09:51:26;;;;;;;10.38;1.90;;;;;;;7.41;91.24;99157.19;5006930;28;20500;-65
2021/12/01 09:53:54;;;;;;;10.40;2.00;;;;;;;7.37;91.74;99155.03;4988629;28;20053;-64
2021/12/01 09:56:20;;;;;;;7.00;1.65;;;;;;;7.36;92.53;99154.22;5005138;28;20056;-65
2021/12/01 09:58:46;;;;;;;10.90;2.42;;;;;;;7.31;92.55;99155.63;5011485;28;20030;-72
2021/12/01 10:01:19;;;;;;;9.85;2.03;;;;;;;7.37;92.25;99155.84;5019831;28;20044;-69
2021/12/01 10:03:45;;;;;;;7.78;1.70;;;;;;;7.38;92.12;99154.06;5006021;28;20071;-64
2021/12/01 10:06:19;;;;;;;11.48;2.10;;;;;;;7.38;92.46;99146.34;5007187;28;20132;-64
2021/12/01 10:09:04;;;;;;;10.13;1.95;;;;;;;7.38;91.85;99144.56;4999038;28;20053;-64
2021/12/01 10:11:32;;;;;;;8.93;1.75;;;;;;;7.36;91.40;99143.91;5007947;28;20037;-64
2021/12/01 10:14:07;;;;;;;11.00;2.13;;;;;;;7.40;91.25;99139.28;5012210;28;20081;-63
2021/12/01 10:16:35;;;;;;;9.25;1.88;;;;;;;7.37;91.53;99135.22;5014996;28;20031;-64
2021/12/01 10:19:10;;;;;;;9.07;1.67;;;;;;;7.36;90.52;99143.91;5011989;28;20452;-63
2021/12/01 10:21:37;;;;;;;6.78;1.48;;;;;;;7.33;90.04;99144.19;5012182;28;20141;-64
2021/12/01 10:24:16;;;;;;;7.07;1.50;;;;;;;7.36;90.22;99148.25;4993961;28;20061;-64
2021/12/01 10:26:55;;;;;;;7.65;1.80;;;;;;;7.37;90.46;99150.69;5004079;28;20500;-63
2021/12/01 10:29:24;;;;;;;9.35;1.90;;;;;;;7.38;90.84;99157.47;5011292;28;20022;-63
2021/12/01 10:32:01;;;;;;;9.20;1.60;;;;;;;7.42;90.40;99153.66;5010289;28;20057;-63
2021/12/01 10:34:39;;;;;;;9.68;1.70;;;;;;;7.41;89.62;99152.03;5006581;28;20025;-64
2021/12/01 10:37:22;;;;;;;8.23;1.58;;;;;;;7.44;88.72;99145.75;5009928;28;20018;-64
2021/12/01 10:40:10;;;;;;;8.20;1.50;;;;;;;7.44;88.82;99146.56;5011840;28;20017;-63
2021/12/01 10:42:56;;;;;;;11.15;2.08;;;;;;;7.48;89.44;99156.59;5011156;28;20092;-64
2021/12/01 10:45:28;;;;;;;7.43;1.33;;;;;;;7.43;87.68;99146.72;5011428;28;20030;-63
2021/12/01 10:47:54;;;;;;;7.28;1.20;;;;;;;7.39;87.68;99148.75;5018406;28;20065;-63
2021/12/01 10:50:24;;;;;;;6.05;1.40;;;;;;;7.38;87.07;99142.00;4994657;28;20084;-64
2021/12/01 10:52:52;;;;;;;5.70;1.30;;;;;;;7.37;86.51;99140.38;5011518;28;20069;-63
2021/12/01 10:55:23;;;;;;;6.55;1.17;;;;;;;7.36;85.88;99137.94;5011503;28;20026;-64
2021/12/01 10:58:02;;;;;;;4.63;1.00;;;;;;;7.34;86.24;99139.84;5021784;28;20068;-66
2021/12/01 11:00:32;;;;;;;5.13;1.30;;;;;;;7.31;86.20;99143.53;5012464;28;20038;-64
2021/12/01 11:03:18;;;;;;;6.60;1.33;;;;;;;7.32;86.41;99136.59;5011565;28;20030;-63
2021/12/01 11:05:46;;;;;;;6.20;1.23;;;;;;;7.28;86.74;99140.44;5011289;28;20026;-65
2021/12/01 11:08:13;;;;;;;6.70;1.43;;;;;;;7.31;86.69;99135.81;5012764;28;20116;-64
2021/12/01 11:10:40;;;;;;;4.25;1.08;;;;;;;7.29;87.11;99136.91;5011439;28;20026;-63
2021/12/01 11:13:06;;;;;;;5.30;1.20;;;;;;;7.29;86.10;99130.00;5011488;28;20465;-64
2021/12/01 11:15:35;;;;;;;6.43;1.40;;;;;;;7.31;86.72;99140.97;5015282;28;20057;-64
2021/12/01 11:18:02;;;;;;;5.88;1.40;;;;;;;7.31;86.44;99148.69;5010467;28;20050;-64
2021/12/01 11:20:48;;;;;;;7.65;1.38;;;;;;;7.36;87.52;99143.09;5011092;28;20131;-64
2021/12/01 11:23:25;;;;;;;7.72;1.58;;;;;;;7.34;87.29;99156.16;5026684;28;20156;-64
2021/12/01 11:25:55;;;;;;;7.93;1.60;;;;;;;7.36;87.24;99153.41;4998670;28;20033;-64
2021/12/01 11:28:24;;;;;;;6.80;1.40;;;;;;;7.37;87.41;99155.03;5003961;28;20033;-65
2021/12/01 11:31:11;;;;;;;5.05;1.25;;;;;;;7.42;87.20;99153.66;5000445;28;20029;-64
2021/12/01 11:33:42;;;;;;;7.17;1.20;;;;;;;7.40;87.07;99137.50;4998740;28;20075;-63
2021/12/01 11:36:09;;;;;;;7.63;1.38;;;;;;;7.37;87.19;99135.22;5008363;28;20026;-64
2021/12/01 11:38:35;;;;;;;6.40;1.38;;;;;;;7.41;87.21;99136.56;5004908;28;20129;-64
2021/12/01 11:41:02;;;;;;;8.75;1.50;;;;;;;7.43;87.38;99136.41;4985953;28;20038;-63
2021/12/01 11:43:30;;;;;;;10.48;2.05;;;;;;;7.45;87.09;99127.56;4995812;28;20030;-64
2021/12/01 11:45:56;;;;;;;6.85;1.88;;;;;;;7.48;87.01;99125.66;5010433;28;20037;-64
2021/12/01 11:48:25;;;;;;;9.38;1.75;;;;;;;7.47;86.60;99130.00;5010617;28;20030;-64
2021/12/01 11:50:56;;;;;;;9.82;1.63;;;;;;;7.51;87.34;99130.50;5007092;28;20107;-64
2021/12/01 11:53:25;;;;;;;7.80;1.77;;;;;;;7.51;86.55;99126.16;5002806;28;20454;-63
2021/12/01 11:56:01;;;;;;;8.73;1.73;;;;;;;7.51;85.72;99126.16;4992597;28;20029;-63
2021/12/01 11:58:41;;;;;;;8.38;1.67;;;;;;;7.54;86.29;99125.06;5010523;28;20038;-64
2021/12/01 12:01:26;;;;;;;10.45;1.60;;;;;;;7.54;86.77;99135.38;5005091;28;20034;-66
2021/12/01 12:03:55;;;;;;;7.38;1.70;;;;;;;7.51;85.98;99138.22;4998144;28;20022;-64
2021/12/01 12:06:21;;;;;;;8.38;1.38;;;;;;;7.52;85.85;99137.31;5004802;28;20053;-64
2021/12/01 12:09:00;;;;;;;7.30;1.70;;;;;;;7.52;86.53;99132.16;5000747;28;20094;-64
2021/12/01 12:11:43;;;;;;;6.68;1.55;;;;;;;7.51;85.63;99130.50;5005949;28;20058;-63
2021/12/01 12:14:17;;;;;;;8.80;1.60;;;;;;;7.51;86.32;99125.34;5008128;28;20597;-64
2021/12/01 12:17:03;;;;;;;9.35;1.83;;;;;;;7.53;85.56;99133.75;5000225;28;20085;-64
2021/12/01 12:19:48;;;;;;;8.48;1.80;;;;;;;7.52;85.16;99132.94;5005536;28;20026;-64
2021/12/01 12:22:18;;;;;;;7.35;1.50;;;;;;;7.53;85.55;99128.59;5005001;28;20032;-64
2021/12/01 12:24:51;;;;;;;7.07;1.30;;;;;;;7.53;85.19;99124.25;4996355;28;20061;-65
2021/12/01 12:27:33;;;;;;;9.40;1.58;;;;;;;7.56;84.60;99133.44;5009049;28;20500;-63
2021/12/01 12:30:00;;;;;;;10.25;2.00;;;;;;;7.55;84.78;99131.84;5009017;28;20441;-63
2021/12/01 12:32:29;;;;;;;9.52;1.63;;;;;;;7.57;84.90;99129.91;5004656;28;20026;-65
2021/12/01 12:34:58;;;;;;;8.38;1.90;;;;;;;7.58;84.80;99136.72;5006977;28;20364;-63
2021/12/01 12:37:26;;;;;;;8.88;1.45;;;;;;;7.57;84.50;99129.91;5008394;28;20034;-63
2021/12/01 12:39:53;;;;;;;10.73;2.13;;;;;;;7.57;85.01;99135.91;5000820;28;20376;-63
2021/12/01 12:42:19;;;;;;;9.93;1.88;;;;;;;7.58;84.24;99131.56;5004592;28;20021;-63
2021/12/01 12:44:49;;;;;;;7.63;1.52;;;;;;;7.57;85.07;99124.75;5008349;28;20466;-63
2021/12/01 12:47:19;;;;;;;6.70;1.88;;;;;;;7.59;84.82;99133.16;5006523;28;20037;-63
2021/12/01 12:49:47;;;;;;;9.70;1.70;;;;;;;7.59;85.16;99128.00;5004745;28;20025;-63
2021/12/01 12:52:27;;;;;;;8.65;1.60;;;;;;;7.62;85.07;99132.84;5009986;28;20033;-63
2021/12/01 12:54:53;;;;;;;10.77;1.90;;;;;;;7.60;85.11;99137.38;5009865;28;20040;-64
2021/12/01 12:57:20;;;;;;;11.40;1.80;;;;;;;7.60;85.54;99127.84;5005716;28;20029;-63
2021/12/01 12:59:45;;;;;;;9.48;1.52;;;;;;;7.63;84.58;99144.81;5010192;28;20073;-63
2021/12/01 13:02:10;;;;;;;9.93;1.67;;;;;;;7.64;84.25;99143.88;5008728;28;20049;-63
2021/12/01 13:04:52;;;;;;;7.53;1.50;;;;;;;7.64;84.82;99141.28;5007311;28;20028;-64
2021/12/01 13:07:29;;;;;;;10.05;1.83;;;;;;;7.62;85.85;99148.34;5007250;28;20022;-64
2021/12/01 13:10:08;;;;;;;10.57;1.57;;;;;;;7.55;85.41;99137.00;5009987;28;20029;-64
2021/12/01 13:12:47;;;;;;;7.22;1.52;;;;;;;7.58;85.56;99147.03;5007698;28;20816;-64
2021/12/01 13:15:39;;;;;;;7.25;1.67;;;;;;;7.57;85.81;99140.22;5010107;28;20081;-64
2021/12/01 13:18:15;;;;;;;9.40;1.70;;;;;;;7.53;85.70;99138.91;4998318;28;20034;-64
2021/12/01 13:21:03;;;;;;;10.57;2.00;;;;;;;7.51;86.20;99133.88;4993618;28;20026;-64
2021/12/01 13:23:46;;;;;;;8.23;1.45;;;;;;;7.53;85.72;99151.81;4994767;28;20040;-64
2021/12/01 13:26:17;;;;;;;9.20;1.80;;;;;;;7.51;84.85;99145.97;5002793;28;20030;-64
2021/12/01 13:28:43;;;;;;;9.18;1.80;;;;;;;7.52;85.25;99147.63;5006966;28;20033;-64
2021/12/01 13:31:35;;;;;;;8.50;1.75;;;;;;;7.55;85.35;99140.38;5006658;28;20033;-63
2021/12/01 13:34:06;;;;;;;9.77;1.70;;;;;;;7.53;85.14;99138.91;4999007;28;20389;-63
2021/12/01 13:36:39;;;;;;;7.85;1.88;;;;;;;7.54;84.71;99146.50;5006175;28;20108;-63
2021/12/01 13:39:06;;;;;;;8.50;1.70;;;;;;;7.54;84.72;99141.34;4993480;28;20026;-63